sensor_id;sensor_type;location;lat;lon;timestamp;P1;durP1;ratioP1;P2;durP2;ratioP2
23567;SDS011;11962;50.838;4.430;2022-08-19T00:02:13;16.25;;;12.10;;
23567;SDS011;11962;50.838;4.430;2022-08-19T00:04:39;21.40;;;16.50;;
23567;SDS011;11962;50.838;4.430;2022-08-19T00:07:05;23.08;;;18.83;;
23567;SDS011;11962;50.838;4.430;2022-08-19T00:09:32;27.45;;;20.75;;
23567;SDS011;11962;50.838;4.430;2022-08-19T00:11:58;25.85;;;22.15;;
23567;SDS011;11962;50.838;4.430;2022-08-19T00:14:25;30.15;;;23.67;;
23567;SDS011;11962;50.838;4.430;2022-08-19T00:16:52;31.85;;;25.42;;
23567;SDS011;11962;50.838;4.430;2022-08-19T00:19:19;30.48;;;24.67;;
23567;SDS011;11962;50.838;4.430;2022-08-19T00:21:45;38.17;;;27.75;;
23567;SDS011;11962;50.838;4.430;2022-08-19T00:24:12;34.97;;;26.65;;
23567;SDS011;11962;50.838;4.430;2022-08-19T00:26:40;45.97;;;32.15;;
23567;SDS011;11962;50.838;4.430;2022-08-19T00:29:07;46.90;;;32.50;;
23567;SDS011;11962;50.838;4.430;2022-08-19T00:31:34;53.55;;;34.63;;
23567;SDS011;11962;50.838;4.430;2022-08-19T00:34:00;53.70;;;35.80;;
23567;SDS011;11962;50.838;4.430;2022-08-19T00:36:26;54.25;;;36.13;;
23567;SDS011;11962;50.838;4.430;2022-08-19T00:38:53;62.67;;;38.05;;
23567;SDS011;11962;50.838;4.430;2022-08-19T00:41:20;56.03;;;36.22;;
23567;SDS011;11962;50.838;4.430;2022-08-19T00:44:07;53.47;;;36.45;;
23567;SDS011;11962;50.838;4.430;2022-08-19T00:46:38;64.18;;;39.15;;
23567;SDS011;11962;50.838;4.430;2022-08-19T00:51:50;66.25;;;41.45;;
23567;SDS011;11962;50.838;4.430;2022-08-19T00:54:20;64.45;;;40.95;;
23567;SDS011;11962;50.838;4.430;2022-08-19T00:56:46;64.20;;;41.55;;
23567;SDS011;11962;50.838;4.430;2022-08-19T00:59:14;69.00;;;43.88;;
23567;SDS011;11962;50.838;4.430;2022-08-19T01:01:42;67.38;;;42.55;;
23567;SDS011;11962;50.838;4.430;2022-08-19T01:04:09;70.38;;;44.80;;
23567;SDS011;11962;50.838;4.430;2022-08-19T01:06:35;70.00;;;44.33;;
23567;SDS011;11962;50.838;4.430;2022-08-19T01:09:03;69.00;;;43.15;;
23567;SDS011;11962;50.838;4.430;2022-08-19T01:11:30;65.65;;;42.38;;
23567;SDS011;11962;50.838;4.430;2022-08-19T01:13:59;66.10;;;41.67;;
23567;SDS011;11962;50.838;4.430;2022-08-19T01:16:25;63.97;;;40.55;;
23567;SDS011;11962;50.838;4.430;2022-08-19T01:18:54;64.88;;;40.47;;
23567;SDS011;11962;50.838;4.430;2022-08-19T01:21:37;60.23;;;40.07;;
23567;SDS011;11962;50.838;4.430;2022-08-19T01:24:09;57.58;;;39.75;;
23567;SDS011;11962;50.838;4.430;2022-08-19T01:26:39;59.50;;;38.80;;
23567;SDS011;11962;50.838;4.430;2022-08-19T01:29:08;60.05;;;38.40;;
23567;SDS011;11962;50.838;4.430;2022-08-19T01:31:34;54.42;;;36.53;;
23567;SDS011;11962;50.838;4.430;2022-08-19T01:34:02;53.90;;;34.45;;
23567;SDS011;11962;50.838;4.430;2022-08-19T01:36:47;49.42;;;33.83;;
23567;SDS011;11962;50.838;4.430;2022-08-19T01:39:23;48.38;;;31.63;;
23567;SDS011;11962;50.838;4.430;2022-08-19T01:41:50;48.42;;;31.73;;
23567;SDS011;11962;50.838;4.430;2022-08-19T01:44:19;44.95;;;31.27;;
23567;SDS011;11962;50.838;4.430;2022-08-19T01:46:48;43.40;;;30.42;;
23567;SDS011;11962;50.838;4.430;2022-08-19T01:49:15;42.33;;;29.75;;
23567;SDS011;11962;50.838;4.430;2022-08-19T01:51:46;37.60;;;27.90;;
23567;SDS011;11962;50.838;4.430;2022-08-19T01:54:12;38.97;;;28.63;;
23567;SDS011;11962;50.838;4.430;2022-08-19T01:56:59;32.65;;;25.58;;
23567;SDS011;11962;50.838;4.430;2022-08-19T01:59:30;34.45;;;25.27;;
23567;SDS011;11962;50.838;4.430;2022-08-19T02:04:51;30.50;;;22.35;;
23567;SDS011;11962;50.838;4.430;2022-08-19T02:07:18;31.85;;;23.15;;
23567;SDS011;11962;50.838;4.430;2022-08-19T02:09:46;29.83;;;22.70;;
23567;SDS011;11962;50.838;4.430;2022-08-19T02:12:12;29.42;;;21.45;;
23567;SDS011;11962;50.838;4.430;2022-08-19T02:14:37;30.30;;;22.35;;
23567;SDS011;11962;50.838;4.430;2022-08-19T02:17:03;33.47;;;24.20;;
23567;SDS011;11962;50.838;4.430;2022-08-19T02:19:29;32.58;;;23.02;;
23567;SDS011;11962;50.838;4.430;2022-08-19T02:21:57;33.72;;;22.63;;
23567;SDS011;11962;50.838;4.430;2022-08-19T02:24:23;28.20;;;21.05;;
23567;SDS011;11962;50.838;4.430;2022-08-19T02:26:49;22.95;;;18.77;;
23567;SDS011;11962;50.838;4.430;2022-08-19T02:29:15;25.15;;;17.98;;
23567;SDS011;11962;50.838;4.430;2022-08-19T02:31:40;25.92;;;17.98;;
23567;SDS011;11962;50.838;4.430;2022-08-19T02:34:06;25.55;;;18.50;;
23567;SDS011;11962;50.838;4.430;2022-08-19T02:36:32;25.10;;;18.10;;
23567;SDS011;11962;50.838;4.430;2022-08-19T02:38:57;27.25;;;21.13;;
23567;SDS011;11962;50.838;4.430;2022-08-19T02:41:27;32.15;;;22.60;;
23567;SDS011;11962;50.838;4.430;2022-08-19T02:43:56;32.53;;;23.80;;
23567;SDS011;11962;50.838;4.430;2022-08-19T02:46:27;32.42;;;24.13;;
23567;SDS011;11962;50.838;4.430;2022-08-19T02:49:04;31.15;;;23.30;;
23567;SDS011;11962;50.838;4.430;2022-08-19T02:51:33;33.53;;;21.17;;
23567;SDS011;11962;50.838;4.430;2022-08-19T02:54:01;28.73;;;20.85;;
23567;SDS011;11962;50.838;4.430;2022-08-19T02:56:29;27.30;;;19.40;;
23567;SDS011;11962;50.838;4.430;2022-08-19T02:58:56;28.67;;;21.08;;
23567;SDS011;11962;50.838;4.430;2022-08-19T03:03:57;25.58;;;18.95;;
23567;SDS011;11962;50.838;4.430;2022-08-19T03:06:25;25.90;;;19.77;;
23567;SDS011;11962;50.838;4.430;2022-08-19T03:08:51;27.73;;;19.60;;
23567;SDS011;11962;50.838;4.430;2022-08-19T03:13:53;23.85;;;17.20;;
23567;SDS011;11962;50.838;4.430;2022-08-19T03:16:20;24.88;;;16.25;;
23567;SDS011;11962;50.838;4.430;2022-08-19T03:21:52;21.63;;;15.32;;
23567;SDS011;11962;50.838;4.430;2022-08-19T03:24:18;23.42;;;16.05;;
23567;SDS011;11962;50.838;4.430;2022-08-19T03:26:46;22.88;;;16.08;;
23567;SDS011;11962;50.838;4.430;2022-08-19T03:29:21;30.63;;;20.15;;
23567;SDS011;11962;50.838;4.430;2022-08-19T03:31:47;31.30;;;19.70;;
23567;SDS011;11962;50.838;4.430;2022-08-19T03:34:14;31.50;;;20.17;;
23567;SDS011;11962;50.838;4.430;2022-08-19T03:36:42;31.65;;;19.70;;
23567;SDS011;11962;50.838;4.430;2022-08-19T03:39:09;32.70;;;20.25;;
23567;SDS011;11962;50.838;4.430;2022-08-19T03:41:36;28.42;;;19.85;;
23567;SDS011;11962;50.838;4.430;2022-08-19T03:46:31;26.45;;;17.90;;
23567;SDS011;11962;50.838;4.430;2022-08-19T03:49:03;29.92;;;18.05;;
23567;SDS011;11962;50.838;4.430;2022-08-19T03:51:34;26.88;;;17.92;;
23567;SDS011;11962;50.838;4.430;2022-08-19T03:54:02;33.03;;;17.85;;
23567;SDS011;11962;50.838;4.430;2022-08-19T03:56:30;28.63;;;17.88;;
23567;SDS011;11962;50.838;4.430;2022-08-19T03:58:56;26.63;;;19.52;;
23567;SDS011;11962;50.838;4.430;2022-08-19T04:01:24;32.70;;;20.38;;
23567;SDS011;11962;50.838;4.430;2022-08-19T04:04:04;33.45;;;22.95;;
23567;SDS011;11962;50.838;4.430;2022-08-19T04:06:31;31.50;;;21.98;;
23567;SDS011;11962;50.838;4.430;2022-08-19T04:09:00;34.55;;;22.25;;
23567;SDS011;11962;50.838;4.430;2022-08-19T04:11:29;30.65;;;19.88;;
23567;SDS011;11962;50.838;4.430;2022-08-19T04:14:19;35.67;;;20.95;;
23567;SDS011;11962;50.838;4.430;2022-08-19T04:16:46;32.53;;;20.90;;
23567;SDS011;11962;50.838;4.430;2022-08-19T04:19:17;32.50;;;19.73;;
23567;SDS011;11962;50.838;4.430;2022-08-19T04:21:44;33.38;;;20.17;;
23567;SDS011;11962;50.838;4.430;2022-08-19T04:24:11;33.20;;;20.00;;
23567;SDS011;11962;50.838;4.430;2022-08-19T04:26:37;29.75;;;18.73;;
23567;SDS011;11962;50.838;4.430;2022-08-19T04:29:08;28.38;;;19.10;;
23567;SDS011;11962;50.838;4.430;2022-08-19T04:31:36;32.20;;;19.92;;
23567;SDS011;11962;50.838;4.430;2022-08-19T04:34:08;32.42;;;19.42;;
23567;SDS011;11962;50.838;4.430;2022-08-19T04:36:37;32.70;;;19.38;;
23567;SDS011;11962;50.838;4.430;2022-08-19T04:41:32;25.17;;;16.98;;
23567;SDS011;11962;50.838;4.430;2022-08-19T04:44:17;30.50;;;17.80;;
23567;SDS011;11962;50.838;4.430;2022-08-19T04:46:44;34.42;;;17.50;;
23567;SDS011;11962;50.838;4.430;2022-08-19T04:52:33;27.23;;;15.23;;
23567;SDS011;11962;50.838;4.430;2022-08-19T04:54:59;26.45;;;15.70;;
23567;SDS011;11962;50.838;4.430;2022-08-19T04:57:25;26.60;;;15.15;;
23567;SDS011;11962;50.838;4.430;2022-08-19T04:59:55;25.48;;;15.25;;
23567;SDS011;11962;50.838;4.430;2022-08-19T05:02:21;24.92;;;13.90;;
23567;SDS011;11962;50.838;4.430;2022-08-19T05:04:51;28.13;;;15.23;;
23567;SDS011;11962;50.838;4.430;2022-08-19T05:07:22;26.63;;;15.25;;
23567;SDS011;11962;50.838;4.430;2022-08-19T05:09:48;35.83;;;15.57;;
23567;SDS011;11962;50.838;4.430;2022-08-19T05:12:13;26.08;;;15.15;;
23567;SDS011;11962;50.838;4.430;2022-08-19T05:14:40;23.38;;;14.70;;
23567;SDS011;11962;50.838;4.430;2022-08-19T05:17:05;24.45;;;14.57;;
23567;SDS011;11962;50.838;4.430;2022-08-19T05:19:31;26.70;;;14.65;;
23567;SDS011;11962;50.838;4.430;2022-08-19T05:22:15;24.75;;;15.10;;
23567;SDS011;11962;50.838;4.430;2022-08-19T05:27:53;27.50;;;16.15;;
23567;SDS011;11962;50.838;4.430;2022-08-19T05:30:18;29.45;;;17.67;;
23567;SDS011;11962;50.838;4.430;2022-08-19T05:32:44;24.60;;;16.67;;
23567;SDS011;11962;50.838;4.430;2022-08-19T05:35:10;24.75;;;16.15;;
23567;SDS011;11962;50.838;4.430;2022-08-19T05:37:36;29.95;;;17.05;;
23567;SDS011;11962;50.838;4.430;2022-08-19T05:42:31;29.92;;;17.92;;
23567;SDS011;11962;50.838;4.430;2022-08-19T05:44:56;31.23;;;17.65;;
23567;SDS011;11962;50.838;4.430;2022-08-19T05:47:22;27.52;;;17.10;;
23567;SDS011;11962;50.838;4.430;2022-08-19T05:49:54;30.63;;;16.85;;
23567;SDS011;11962;50.838;4.430;2022-08-19T05:52:19;22.48;;;16.00;;
23567;SDS011;11962;50.838;4.430;2022-08-19T05:54:46;26.42;;;17.45;;
23567;SDS011;11962;50.838;4.430;2022-08-19T05:57:13;24.75;;;16.08;;
23567;SDS011;11962;50.838;4.430;2022-08-19T05:59:39;28.02;;;15.88;;
23567;SDS011;11962;50.838;4.430;2022-08-19T06:02:05;21.42;;;14.52;;
23567;SDS011;11962;50.838;4.430;2022-08-19T06:04:31;20.27;;;13.57;;
23567;SDS011;11962;50.838;4.430;2022-08-19T06:06:57;21.17;;;12.95;;
23567;SDS011;11962;50.838;4.430;2022-08-19T06:09:23;20.50;;;12.50;;
23567;SDS011;11962;50.838;4.430;2022-08-19T06:11:50;18.63;;;12.25;;
23567;SDS011;11962;50.838;4.430;2022-08-19T06:14:19;147.60;;;19.52;;
23567;SDS011;11962;50.838;4.430;2022-08-19T06:16:49;19.27;;;11.48;;
23567;SDS011;11962;50.838;4.430;2022-08-19T06:19:17;19.05;;;11.00;;
23567;SDS011;11962;50.838;4.430;2022-08-19T06:21:45;18.50;;;11.23;;
23567;SDS011;11962;50.838;4.430;2022-08-19T06:24:14;13.70;;;9.65;;
23567;SDS011;11962;50.838;4.430;2022-08-19T06:26:41;13.20;;;8.60;;
23567;SDS011;11962;50.838;4.430;2022-08-19T06:29:10;13.90;;;8.98;;
23567;SDS011;11962;50.838;4.430;2022-08-19T06:31:40;13.77;;;7.88;;
23567;SDS011;11962;50.838;4.430;2022-08-19T06:34:11;12.00;;;7.43;;
23567;SDS011;11962;50.838;4.430;2022-08-19T06:39:28;13.30;;;7.50;;
23567;SDS011;11962;50.838;4.430;2022-08-19T06:41:56;11.98;;;6.93;;
23567;SDS011;11962;50.838;4.430;2022-08-19T06:44:26;11.70;;;6.85;;
23567;SDS011;11962;50.838;4.430;2022-08-19T06:46:54;9.23;;;6.43;;
23567;SDS011;11962;50.838;4.430;2022-08-19T06:49:21;11.07;;;6.13;;
23567;SDS011;11962;50.838;4.430;2022-08-19T06:54:44;12.50;;;6.47;;
23567;SDS011;11962;50.838;4.430;2022-08-19T06:57:10;9.27;;;5.95;;
23567;SDS011;11962;50.838;4.430;2022-08-19T06:59:39;14.00;;;6.30;;
23567;SDS011;11962;50.838;4.430;2022-08-19T07:02:05;10.60;;;6.28;;
23567;SDS011;11962;50.838;4.430;2022-08-19T07:04:32;12.13;;;5.72;;
23567;SDS011;11962;50.838;4.430;2022-08-19T07:07:00;10.70;;;6.50;;
23567;SDS011;11962;50.838;4.430;2022-08-19T07:09:28;12.15;;;5.90;;
23567;SDS011;11962;50.838;4.430;2022-08-19T07:11:55;12.50;;;6.38;;
23567;SDS011;11962;50.838;4.430;2022-08-19T07:14:22;17.40;;;6.43;;
23567;SDS011;11962;50.838;4.430;2022-08-19T07:16:50;9.57;;;6.20;;
23567;SDS011;11962;50.838;4.430;2022-08-19T07:19:17;11.13;;;6.18;;
23567;SDS011;11962;50.838;4.430;2022-08-19T07:21:56;12.48;;;6.30;;
23567;SDS011;11962;50.838;4.430;2022-08-19T07:24:25;12.60;;;6.82;;
23567;SDS011;11962;50.838;4.430;2022-08-19T07:26:54;14.55;;;7.43;;
23567;SDS011;11962;50.838;4.430;2022-08-19T07:29:22;13.43;;;6.80;;
23567;SDS011;11962;50.838;4.430;2022-08-19T07:31:51;13.20;;;6.85;;
23567;SDS011;11962;50.838;4.430;2022-08-19T07:34:21;11.38;;;6.28;;
23567;SDS011;11962;50.838;4.430;2022-08-19T07:36:48;14.38;;;6.38;;
23567;SDS011;11962;50.838;4.430;2022-08-19T07:39:17;17.50;;;6.38;;
23567;SDS011;11962;50.838;4.430;2022-08-19T07:41:46;11.00;;;5.72;;
23567;SDS011;11962;50.838;4.430;2022-08-19T07:44:12;8.02;;;5.00;;
23567;SDS011;11962;50.838;4.430;2022-08-19T07:46:41;12.65;;;5.10;;
23567;SDS011;11962;50.838;4.430;2022-08-19T07:49:13;6.38;;;4.90;;
23567;SDS011;11962;50.838;4.430;2022-08-19T07:51:44;7.50;;;4.55;;
23567;SDS011;11962;50.838;4.430;2022-08-19T07:54:15;10.52;;;5.10;;
23567;SDS011;11962;50.838;4.430;2022-08-19T07:56:41;9.77;;;4.82;;
23567;SDS011;11962;50.838;4.430;2022-08-19T07:59:07;7.93;;;4.13;;
23567;SDS011;11962;50.838;4.430;2022-08-19T08:01:34;8.75;;;4.57;;
23567;SDS011;11962;50.838;4.430;2022-08-19T08:04:00;9.00;;;4.70;;
23567;SDS011;11962;50.838;4.430;2022-08-19T08:06:44;8.07;;;4.13;;
23567;SDS011;11962;50.838;4.430;2022-08-19T08:09:34;9.85;;;5.22;;
23567;SDS011;11962;50.838;4.430;2022-08-19T08:12:09;8.65;;;5.43;;
23567;SDS011;11962;50.838;4.430;2022-08-19T08:14:40;13.82;;;5.13;;
23567;SDS011;11962;50.838;4.430;2022-08-19T08:17:11;11.52;;;5.20;;
23567;SDS011;11962;50.838;4.430;2022-08-19T08:19:38;7.22;;;4.68;;
23567;SDS011;11962;50.838;4.430;2022-08-19T08:22:21;8.00;;;5.20;;
23567;SDS011;11962;50.838;4.430;2022-08-19T08:25:12;7.90;;;4.30;;
23567;SDS011;11962;50.838;4.430;2022-08-19T08:27:43;8.75;;;4.43;;
23567;SDS011;11962;50.838;4.430;2022-08-19T08:30:11;7.07;;;4.78;;
23567;SDS011;11962;50.838;4.430;2022-08-19T08:32:40;7.97;;;4.43;;
23567;SDS011;11962;50.838;4.430;2022-08-19T08:35:08;8.70;;;4.90;;
23567;SDS011;11962;50.838;4.430;2022-08-19T08:37:36;10.77;;;4.80;;
23567;SDS011;11962;50.838;4.430;2022-08-19T08:40:04;9.48;;;5.28;;
23567;SDS011;11962;50.838;4.430;2022-08-19T08:42:36;15.52;;;4.45;;
23567;SDS011;11962;50.838;4.430;2022-08-19T08:45:13;8.13;;;4.28;;
23567;SDS011;11962;50.838;4.430;2022-08-19T08:47:42;6.93;;;4.10;;
23567;SDS011;11962;50.838;4.430;2022-08-19T08:50:15;8.32;;;4.10;;
23567;SDS011;11962;50.838;4.430;2022-08-19T08:53:00;9.40;;;3.97;;
23567;SDS011;11962;50.838;4.430;2022-08-19T08:55:28;6.82;;;3.63;;
23567;SDS011;11962;50.838;4.430;2022-08-19T08:58:02;10.35;;;4.15;;
23567;SDS011;11962;50.838;4.430;2022-08-19T09:00:43;7.18;;;3.88;;
23567;SDS011;11962;50.838;4.430;2022-08-19T09:03:21;8.10;;;3.72;;
23567;SDS011;11962;50.838;4.430;2022-08-19T09:14:23;5.65;;;3.90;;
23567;SDS011;11962;50.838;4.430;2022-08-19T09:19:59;6.57;;;3.50;;
23567;SDS011;11962;50.838;4.430;2022-08-19T09:22:33;9.18;;;4.00;;
23567;SDS011;11962;50.838;4.430;2022-08-19T09:25:00;7.47;;;4.20;;
23567;SDS011;11962;50.838;4.430;2022-08-19T09:27:26;6.32;;;4.07;;
23567;SDS011;11962;50.838;4.430;2022-08-19T09:29:53;7.32;;;3.88;;
23567;SDS011;11962;50.838;4.430;2022-08-19T09:32:20;7.28;;;3.88;;
23567;SDS011;11962;50.838;4.430;2022-08-19T09:34:47;7.85;;;4.03;;
23567;SDS011;11962;50.838;4.430;2022-08-19T09:37:13;8.02;;;4.20;;
23567;SDS011;11962;50.838;4.430;2022-08-19T09:39:39;8.27;;;3.72;;
23567;SDS011;11962;50.838;4.430;2022-08-19T09:42:08;8.20;;;3.75;;
23567;SDS011;11962;50.838;4.430;2022-08-19T09:44:41;5.90;;;3.75;;
23567;SDS011;11962;50.838;4.430;2022-08-19T09:47:08;4.97;;;3.50;;
23567;SDS011;11962;50.838;4.430;2022-08-19T09:49:35;6.50;;;3.67;;
23567;SDS011;11962;50.838;4.430;2022-08-19T09:52:13;7.97;;;4.18;;
23567;SDS011;11962;50.838;4.430;2022-08-19T09:54:40;7.50;;;3.85;;
23567;SDS011;11962;50.838;4.430;2022-08-19T09:57:06;10.20;;;4.65;;
23567;SDS011;11962;50.838;4.430;2022-08-19T09:59:31;6.38;;;4.10;;
23567;SDS011;11962;50.838;4.430;2022-08-19T10:01:57;7.93;;;4.20;;
23567;SDS011;11962;50.838;4.430;2022-08-19T10:04:23;6.35;;;3.97;;
23567;SDS011;11962;50.838;4.430;2022-08-19T10:07:08;7.20;;;3.70;;
23567;SDS011;11962;50.838;4.430;2022-08-19T10:09:34;5.63;;;3.42;;
23567;SDS011;11962;50.838;4.430;2022-08-19T10:12:00;5.55;;;3.33;;
23567;SDS011;11962;50.838;4.430;2022-08-19T10:14:27;4.97;;;3.83;;
23567;SDS011;11962;50.838;4.430;2022-08-19T10:16:53;6.35;;;3.78;;
23567;SDS011;11962;50.838;4.430;2022-08-19T10:19:19;4.88;;;3.78;;
23567;SDS011;11962;50.838;4.430;2022-08-19T10:21:47;5.15;;;3.35;;
23567;SDS011;11962;50.838;4.430;2022-08-19T10:24:13;10.73;;;3.33;;
23567;SDS011;11962;50.838;4.430;2022-08-19T10:26:39;5.22;;;3.25;;
23567;SDS011;11962;50.838;4.430;2022-08-19T10:29:09;5.00;;;3.55;;
23567;SDS011;11962;50.838;4.430;2022-08-19T10:31:37;6.53;;;3.50;;
23567;SDS011;11962;50.838;4.430;2022-08-19T10:34:02;5.28;;;3.40;;
23567;SDS011;11962;50.838;4.430;2022-08-19T10:36:30;5.47;;;3.75;;
23567;SDS011;11962;50.838;4.430;2022-08-19T10:39:10;4.55;;;3.80;;
23567;SDS011;11962;50.838;4.430;2022-08-19T10:41:38;4.78;;;3.90;;
23567;SDS011;11962;50.838;4.430;2022-08-19T10:44:06;7.07;;;3.70;;
23567;SDS011;11962;50.838;4.430;2022-08-19T10:46:35;5.68;;;4.25;;
23567;SDS011;11962;50.838;4.430;2022-08-19T10:49:07;7.57;;;4.30;;
23567;SDS011;11962;50.838;4.430;2022-08-19T10:51:34;5.65;;;4.57;;
23567;SDS011;11962;50.838;4.430;2022-08-19T10:54:20;8.70;;;4.57;;
23567;SDS011;11962;50.838;4.430;2022-08-19T10:56:46;8.93;;;4.68;;
23567;SDS011;11962;50.838;4.430;2022-08-19T10:59:22;7.18;;;5.30;;
23567;SDS011;11962;50.838;4.430;2022-08-19T11:01:54;8.65;;;5.68;;
23567;SDS011;11962;50.838;4.430;2022-08-19T11:04:24;8.68;;;5.25;;
23567;SDS011;11962;50.838;4.430;2022-08-19T11:06:49;8.32;;;5.10;;
23567;SDS011;11962;50.838;4.430;2022-08-19T11:09:22;7.13;;;5.32;;
23567;SDS011;11962;50.838;4.430;2022-08-19T11:11:54;6.65;;;5.35;;
23567;SDS011;11962;50.838;4.430;2022-08-19T11:14:21;7.53;;;6.00;;
23567;SDS011;11962;50.838;4.430;2022-08-19T11:16:50;8.20;;;6.22;;
23567;SDS011;11962;50.838;4.430;2022-08-19T11:19:18;8.93;;;5.65;;
23567;SDS011;11962;50.838;4.430;2022-08-19T11:21:45;8.27;;;5.80;;
23567;SDS011;11962;50.838;4.430;2022-08-19T11:24:13;9.05;;;5.50;;
23567;SDS011;11962;50.838;4.430;2022-08-19T11:26:43;9.25;;;5.95;;
23567;SDS011;11962;50.838;4.430;2022-08-19T11:29:09;5.10;;;4.00;;
23567;SDS011;11962;50.838;4.430;2022-08-19T11:31:38;9.98;;;6.28;;
23567;SDS011;11962;50.838;4.430;2022-08-19T11:34:06;9.55;;;6.88;;
23567;SDS011;11962;50.838;4.430;2022-08-19T11:39:03;8.40;;;5.80;;
23567;SDS011;11962;50.838;4.430;2022-08-19T11:41:30;7.90;;;6.70;;
23567;SDS011;11962;50.838;4.430;2022-08-19T11:43:56;15.10;;;7.90;;
23567;SDS011;11962;50.838;4.430;2022-08-19T11:46:23;12.07;;;7.03;;
23567;SDS011;11962;50.838;4.430;2022-08-19T11:48:50;12.63;;;7.18;;
23567;SDS011;11962;50.838;4.430;2022-08-19T11:51:20;8.80;;;6.85;;
23567;SDS011;11962;50.838;4.430;2022-08-19T11:53:47;11.65;;;7.28;;
23567;SDS011;11962;50.838;4.430;2022-08-19T11:56:15;9.90;;;6.57;;
23567;SDS011;11962;50.838;4.430;2022-08-19T11:58:41;11.88;;;6.85;;
23567;SDS011;11962;50.838;4.430;2022-08-19T12:01:10;10.65;;;6.05;;
23567;SDS011;11962;50.838;4.430;2022-08-19T12:03:37;7.10;;;4.97;;
23567;SDS011;11962;50.838;4.430;2022-08-19T12:06:07;10.73;;;5.60;;
23567;SDS011;11962;50.838;4.430;2022-08-19T12:08:34;8.75;;;5.63;;
23567;SDS011;11962;50.838;4.430;2022-08-19T12:11:00;9.50;;;5.05;;
23567;SDS011;11962;50.838;4.430;2022-08-19T12:13:27;8.82;;;5.22;;
23567;SDS011;11962;50.838;4.430;2022-08-19T12:15:54;12.68;;;5.00;;
23567;SDS011;11962;50.838;4.430;2022-08-19T12:18:20;8.80;;;4.60;;
23567;SDS011;11962;50.838;4.430;2022-08-19T12:20:46;6.00;;;4.30;;
23567;SDS011;11962;50.838;4.430;2022-08-19T12:23:12;5.13;;;4.05;;
23567;SDS011;11962;50.838;4.430;2022-08-19T12:25:43;5.65;;;3.28;;
23567;SDS011;11962;50.838;4.430;2022-08-19T12:28:14;3.88;;;3.00;;
23567;SDS011;11962;50.838;4.430;2022-08-19T12:30:45;6.72;;;3.05;;
23567;SDS011;11962;50.838;4.430;2022-08-19T12:33:11;5.18;;;3.35;;
23567;SDS011;11962;50.838;4.430;2022-08-19T12:35:41;8.93;;;3.17;;
23567;SDS011;11962;50.838;4.430;2022-08-19T12:38:10;4.63;;;2.70;;
23567;SDS011;11962;50.838;4.430;2022-08-19T12:40:51;4.97;;;2.72;;
23567;SDS011;11962;50.838;4.430;2022-08-19T12:43:18;4.88;;;2.90;;
23567;SDS011;11962;50.838;4.430;2022-08-19T12:45:45;6.27;;;2.90;;
23567;SDS011;11962;50.838;4.430;2022-08-19T12:48:11;4.78;;;2.90;;
23567;SDS011;11962;50.838;4.430;2022-08-19T12:50:40;5.28;;;2.83;;
23567;SDS011;11962;50.838;4.430;2022-08-19T12:53:10;4.78;;;2.17;;
23567;SDS011;11962;50.838;4.430;2022-08-19T12:55:36;2.72;;;2.47;;
23567;SDS011;11962;50.838;4.430;2022-08-19T12:58:02;2.80;;;1.92;;
23567;SDS011;11962;50.838;4.430;2022-08-19T13:00:28;3.85;;;2.10;;
23567;SDS011;11962;50.838;4.430;2022-08-19T13:02:55;3.03;;;1.50;;
23567;SDS011;11962;50.838;4.430;2022-08-19T13:05:23;7.65;;;1.88;;
23567;SDS011;11962;50.838;4.430;2022-08-19T13:07:51;3.55;;;1.83;;
23567;SDS011;11962;50.838;4.430;2022-08-19T13:10:28;3.13;;;1.63;;
23567;SDS011;11962;50.838;4.430;2022-08-19T13:12:59;3.20;;;1.70;;
23567;SDS011;11962;50.838;4.430;2022-08-19T13:15:27;5.17;;;1.60;;
23567;SDS011;11962;50.838;4.430;2022-08-19T13:17:56;2.42;;;1.63;;
23567;SDS011;11962;50.838;4.430;2022-08-19T13:20:23;5.40;;;1.97;;
23567;SDS011;11962;50.838;4.430;2022-08-19T13:22:49;5.90;;;1.80;;
23567;SDS011;11962;50.838;4.430;2022-08-19T13:25:15;3.10;;;1.42;;
23567;SDS011;11962;50.838;4.430;2022-08-19T13:27:43;3.63;;;1.63;;
23567;SDS011;11962;50.838;4.430;2022-08-19T13:30:09;2.30;;;1.40;;
23567;SDS011;11962;50.838;4.430;2022-08-19T13:32:54;5.30;;;1.85;;
23567;SDS011;11962;50.838;4.430;2022-08-19T13:35:35;3.00;;;1.45;;
23567;SDS011;11962;50.838;4.430;2022-08-19T13:38:05;3.90;;;1.30;;
23567;SDS011;11962;50.838;4.430;2022-08-19T13:40:31;1.95;;;1.23;;
23567;SDS011;11962;50.838;4.430;2022-08-19T13:43:01;4.07;;;1.27;;
23567;SDS011;11962;50.838;4.430;2022-08-19T13:45:29;2.80;;;1.20;;
23567;SDS011;11962;50.838;4.430;2022-08-19T13:48:00;2.30;;;1.10;;
23567;SDS011;11962;50.838;4.430;2022-08-19T13:50:31;2.92;;;1.20;;
23567;SDS011;11962;50.838;4.430;2022-08-19T13:52:58;3.22;;;1.35;;
23567;SDS011;11962;50.838;4.430;2022-08-19T13:55:24;3.67;;;1.55;;
23567;SDS011;11962;50.838;4.430;2022-08-19T13:57:54;3.15;;;1.10;;
23567;SDS011;11962;50.838;4.430;2022-08-19T14:00:21;1.25;;;1.05;;
23567;SDS011;11962;50.838;4.430;2022-08-19T14:02:51;4.03;;;1.50;;
23567;SDS011;11962;50.838;4.430;2022-08-19T14:05:19;2.33;;;1.38;;
23567;SDS011;11962;50.838;4.430;2022-08-19T14:07:45;1.63;;;1.30;;
23567;SDS011;11962;50.838;4.430;2022-08-19T14:10:25;2.08;;;1.15;;
23567;SDS011;11962;50.838;4.430;2022-08-19T14:12:53;2.60;;;1.30;;
23567;SDS011;11962;50.838;4.430;2022-08-19T14:15:20;3.08;;;1.35;;
23567;SDS011;11962;50.838;4.430;2022-08-19T14:17:46;3.20;;;1.30;;
23567;SDS011;11962;50.838;4.430;2022-08-19T14:20:13;5.32;;;1.33;;
23567;SDS011;11962;50.838;4.430;2022-08-19T14:22:40;7.18;;;1.60;;
23567;SDS011;11962;50.838;4.430;2022-08-19T14:25:08;2.45;;;1.42;;
23567;SDS011;11962;50.838;4.430;2022-08-19T14:27:36;2.88;;;1.23;;
23567;SDS011;11962;50.838;4.430;2022-08-19T14:30:04;5.03;;;1.40;;
23567;SDS011;11962;50.838;4.430;2022-08-19T14:32:31;18.00;;;10.18;;
23567;SDS011;11962;50.838;4.430;2022-08-19T14:34:59;2.38;;;1.88;;
23567;SDS011;11962;50.838;4.430;2022-08-19T14:37:26;7.63;;;1.70;;
23567;SDS011;11962;50.838;4.430;2022-08-19T14:40:04;2.08;;;1.10;;
23567;SDS011;11962;50.838;4.430;2022-08-19T14:42:30;3.30;;;1.27;;
23567;SDS011;11962;50.838;4.430;2022-08-19T14:44:59;4.15;;;1.17;;
23567;SDS011;11962;50.838;4.430;2022-08-19T14:47:25;1.08;;;0.77;;
23567;SDS011;11962;50.838;4.430;2022-08-19T14:49:52;2.53;;;0.77;;
23567;SDS011;11962;50.838;4.430;2022-08-19T14:52:18;1.35;;;0.85;;
23567;SDS011;11962;50.838;4.430;2022-08-19T14:54:44;1.42;;;0.70;;
23567;SDS011;11962;50.838;4.430;2022-08-19T14:57:25;3.13;;;0.90;;
23567;SDS011;11962;50.838;4.430;2022-08-19T14:59:51;2.22;;;0.80;;
23567;SDS011;11962;50.838;4.430;2022-08-19T15:02:17;1.92;;;0.77;;
23567;SDS011;11962;50.838;4.430;2022-08-19T15:04:43;1.23;;;0.80;;
23567;SDS011;11962;50.838;4.430;2022-08-19T15:07:09;0.73;;;0.70;;
23567;SDS011;11962;50.838;4.430;2022-08-19T15:09:35;5.18;;;1.13;;
23567;SDS011;11962;50.838;4.430;2022-08-19T15:12:00;1.08;;;0.70;;
23567;SDS011;11962;50.838;4.430;2022-08-19T15:14:27;2.05;;;1.02;;
23567;SDS011;11962;50.838;4.430;2022-08-19T15:16:58;4.60;;;0.93;;
23567;SDS011;11962;50.838;4.430;2022-08-19T15:19:24;4.72;;;0.93;;
23567;SDS011;11962;50.838;4.430;2022-08-19T15:21:50;1.80;;;0.60;;
23567;SDS011;11962;50.838;4.430;2022-08-19T15:24:15;1.98;;;0.80;;
23567;SDS011;11962;50.838;4.430;2022-08-19T15:26:42;4.82;;;0.80;;
23567;SDS011;11962;50.838;4.430;2022-08-19T15:29:08;1.50;;;0.70;;
23567;SDS011;11962;50.838;4.430;2022-08-19T15:31:34;3.53;;;0.90;;
23567;SDS011;11962;50.838;4.430;2022-08-19T15:34:01;1.73;;;0.90;;